Time;durP1;ratioP1;P1;durP2;ratioP2;P2;SDS_P1;SDS_P2;PMS_P1;PMS_P2;Temp;Humidity;BMP_temperature;BMP_pressure;BME280_temperature;BME280_humidity;BME280_pressure;Samples;Min_cycle;Max_cycle;Signal;HPM_P1;HPM_P2
2024/01/29 00:00:09;;;;;;;7.10;2.40;;;5.90;99.90;;;;;;4956241;28;20051;-81
2024/01/29 00:02:36;;;;;;;6.72;2.70;;;5.90;99.90;;;;;;4968253;28;20043;-81
2024/01/29 00:05:02;;;;;;;7.35;2.83;;;5.90;99.90;;;;;;4989506;28;20038;-81
2024/01/29 00:07:27;;;;;;;7.90;2.90;;;5.90;99.90;;;;;;4972924;28;20104;-81
2024/01/29 00:09:53;;;;;;;7.85;2.97;;;5.90;99.90;;;;;;4958963;28;20062;-81
2024/01/29 00:12:19;;;;;;;7.65;2.83;;;5.80;99.90;;;;;;5009735;28;20384;-81
2024/01/29 00:14:45;;;;;;;8.02;2.70;;;5.80;99.90;;;;;;4971655;28;20045;-81
2024/01/29 00:17:11;;;;;;;7.88;2.83;;;5.80;99.90;;;;;;5003016;28;20037;-81
2024/01/29 00:19:37;;;;;;;7.05;2.60;;;5.80;99.90;;;;;;4973452;28;20042;-81
2024/01/29 00:22:02;;;;;;;8.35;2.90;;;5.80;99.90;;;;;;4986345;28;20038;-81
2024/01/29 00:24:28;;;;;;;7.03;2.75;;;5.70;99.90;;;;;;4963896;28;20080;-81
2024/01/29 00:26:54;;;;;;;8.30;3.03;;;5.70;99.90;;;;;;4973054;28;20496;-81
2024/01/29 00:29:19;;;;;;;7.18;2.90;;;5.80;99.90;;;;;;4979275;28;20034;-81
2024/01/29 00:31:45;;;;;;;7.68;2.83;;;5.60;99.90;;;;;;4985189;28;20046;-81
2024/01/29 00:34:12;;;;;;;7.05;2.65;;;5.60;99.90;;;;;;4980646;28;20243;-81
2024/01/29 00:36:37;;;;;;;8.07;3.13;;;5.60;99.90;;;;;;4985437;28;20046;-81
2024/01/29 00:39:08;;;;;;;7.35;2.88;;;5.50;99.90;;;;;;4981661;28;20504;-81
2024/01/29 00:41:36;;;;;;;7.68;3.05;;;5.50;99.90;;;;;;4984540;28;20651;-81
2024/01/29 00:44:02;;;;;;;8.57;2.85;;;5.50;99.90;;;;;;4970599;28;20050;-81
2024/01/29 00:46:28;;;;;;;8.68;2.90;;;5.50;99.90;;;;;;4951637;28;20526;-81
2024/01/29 00:48:54;;;;;;;8.13;2.97;;;5.40;99.90;;;;;;4965707;28;20045;-81
2024/01/29 00:51:19;;;;;;;8.27;3.10;;;5.90;99.90;;;;;;5015705;28;20050;-81
2024/01/29 00:53:46;;;;;;;7.15;2.90;;;5.30;99.90;;;;;;4950089;28;20058;-81
2024/01/29 00:56:11;;;;;;;7.35;2.67;;;5.50;99.90;;;;;;4982274;28;20031;-81
2024/01/29 00:58:37;;;;;;;7.97;2.83;;;5.30;99.90;;;;;;4985053;28;20042;-81
2024/01/29 01:01:03;;;;;;;8.10;3.03;;;5.20;99.90;;;;;;4967400;28;20174;-81
2024/01/29 01:03:29;;;;;;;7.35;2.70;;;5.20;99.90;;;;;;4953418;28;20031;-81
2024/01/29 01:05:54;;;;;;;9.18;3.00;;;5.20;99.90;;;;;;4984402;28;20480;-81
2024/01/29 01:08:20;;;;;;;7.45;2.90;;;5.20;99.90;;;;;;4960652;28;20050;-82
2024/01/29 01:10:46;;;;;;;8.30;2.88;;;5.10;99.90;;;;;;4984246;28;20057;-81
2024/01/29 01:13:11;;;;;;;7.55;2.67;;;5.10;99.90;;;;;;4960565;28;20093;-81
2024/01/29 01:15:37;;;;;;;8.20;3.03;;;5.20;99.90;;;;;;4952534;28;20508;-81
2024/01/29 01:18:03;;;;;;;9.15;2.90;;;5.10;99.90;;;;;;4961608;28;20292;-81
2024/01/29 01:20:29;;;;;;;7.70;3.08;;;5.10;99.90;;;;;;4983251;28;20050;-82
2024/01/29 01:22:55;;;;;;;6.95;2.60;;;5.10;99.90;;;;;;4997354;28;20403;-81
2024/01/29 01:25:21;;;;;;;9.50;3.25;;;5.10;99.90;;;;;;4982923;28;20054;-81
2024/01/29 01:27:46;;;;;;;7.53;3.20;;;5.00;99.90;;;;;;4961582;28;20074;-81
2024/01/29 01:30:13;;;;;;;7.68;3.03;;;5.00;99.90;;;;;;4987122;28;20046;-81
2024/01/29 01:32:39;;;;;;;8.18;3.05;;;5.00;99.90;;;;;;4953051;28;20045;-81
2024/01/29 01:35:05;;;;;;;7.38;2.78;;;5.00;99.90;;;;;;5001702;28;20038;-81
2024/01/29 01:37:30;;;;;;;7.60;2.88;;;5.00;99.90;;;;;;4985693;28;20431;-81
2024/01/29 01:39:57;;;;;;;7.38;2.80;;;5.40;99.90;;;;;;4975906;28;20046;-81
2024/01/29 01:42:22;;;;;;;8.20;3.05;;;4.90;99.90;;;;;;4967056;28;20137;-81
2024/01/29 01:44:48;;;;;;;7.85;3.00;;;4.90;99.90;;;;;;5012699;28;20133;-81
2024/01/29 01:47:14;;;;;;;7.22;2.90;;;4.90;99.90;;;;;;4952266;28;20077;-81
2024/01/29 01:49:40;;;;;;;7.50;2.90;;;4.90;99.90;;;;;;4985766;28;20038;-81
2024/01/29 01:52:07;;;;;;;8.82;2.70;;;4.90;99.90;;;;;;4951926;28;20081;-81
2024/01/29 01:54:33;;;;;;;7.53;3.00;;;4.80;99.90;;;;;;4966904;28;20042;-81
2024/01/29 01:57:01;;;;;;;8.88;2.88;;;5.20;99.90;;;;;;4985745;28;20046;-81
2024/01/29 01:59:29;;;;;;;7.40;2.60;;;4.80;99.90;;;;;;4970084;28;20057;-81
2024/01/29 02:01:55;;;;;;;7.60;2.88;;;4.70;99.90;;;;;;4967794;28;20042;-81
2024/01/29 02:04:21;;;;;;;10.52;3.03;;;4.70;99.90;;;;;;4969065;28;20570;-81
2024/01/29 02:06:47;;;;;;;8.30;3.20;;;4.70;99.90;;;;;;4964008;28;20046;-81
2024/01/29 02:09:13;;;;;;;7.18;2.78;;;5.00;99.90;;;;;;4984093;28;20131;-81
2024/01/29 02:11:39;;;;;;;8.07;3.10;;;4.90;99.90;;;;;;4952095;28;20224;-81
2024/01/29 02:14:04;;;;;;;9.70;3.08;;;5.70;99.90;;;;;;5001880;28;20026;-81
2024/01/29 02:16:30;;;;;;;7.85;2.90;;;4.60;99.90;;;;;;5015329;28;20499;-81
2024/01/29 02:18:56;;;;;;;7.82;2.90;;;4.60;99.90;;;;;;4969779;28;20088;-81
2024/01/29 02:21:21;;;;;;;8.55;3.10;;;4.60;99.90;;;;;;4952287;28;20134;-81
2024/01/29 02:23:47;;;;;;;6.88;2.78;;;4.60;99.90;;;;;;4967743;28;20446;-81
2024/01/29 02:26:13;;;;;;;9.32;3.35;;;4.60;99.90;;;;;;5004259;28;20034;-81
2024/01/29 02:28:39;;;;;;;7.82;3.10;;;4.60;99.90;;;;;;4985027;28;20030;-81
2024/01/29 02:31:05;;;;;;;7.95;2.92;;;4.60;99.90;;;;;;4984868;28;20448;-81
2024/01/29 02:33:31;;;;;;;7.88;2.90;;;4.70;99.90;;;;;;4982389;28;20404;-82
2024/01/29 02:35:57;;;;;;;7.88;2.97;;;4.50;99.90;;;;;;4983712;28;20042;-82
2024/01/29 02:38:23;;;;;;;7.50;2.85;;;4.50;99.90;;;;;;4982597;28;20113;-81
2024/01/29 02:40:48;;;;;;;7.57;3.00;;;4.80;99.90;;;;;;4999450;28;20046;-81
2024/01/29 02:43:14;;;;;;;7.72;2.70;;;4.50;99.90;;;;;;4952543;28;20093;-81
2024/01/29 02:45:40;;;;;;;7.57;2.88;;;4.40;99.90;;;;;;4999996;28;20088;-81
2024/01/29 02:48:06;;;;;;;8.13;3.33;;;4.50;99.90;;;;;;4983998;28;20104;-81
2024/01/29 02:50:32;;;;;;;8.63;3.03;;;4.50;99.90;;;;;;4969051;28;20475;-81
2024/01/29 02:53:01;;;;;;;8.10;3.20;;;4.50;99.90;;;;;;4965861;28;20122;-81
2024/01/29 02:55:27;;;;;;;8.63;3.28;;;4.40;99.90;;;;;;5008051;28;20044;-81
2024/01/29 02:57:52;;;;;;;7.35;3.10;;;4.40;99.90;;;;;;4983259;28;20201;-81
2024/01/29 03:00:18;;;;;;;8.35;3.10;;;4.40;99.90;;;;;;4983848;28;20077;-81
2024/01/29 03:02:44;;;;;;;8.80;3.50;;;4.40;99.90;;;;;;4968503;28;20050;-81
2024/01/29 03:05:10;;;;;;;8.15;3.60;;;4.40;99.90;;;;;;4987846;28;20100;-81
2024/01/29 03:07:35;;;;;;;7.47;3.08;;;4.80;99.90;;;;;;4972884;28;20496;-81
2024/01/29 03:10:01;;;;;;;7.35;2.83;;;4.30;99.90;;;;;;4988543;28;20059;-81
2024/01/29 03:12:27;;;;;;;7.90;2.88;;;4.30;99.90;;;;;;4974451;28;20045;-81
2024/01/29 03:14:52;;;;;;;7.60;2.78;;;4.30;99.90;;;;;;4969865;28;20475;-81
2024/01/29 03:17:18;;;;;;;7.50;3.05;;;4.30;99.90;;;;;;4971812;28;20480;-81
2024/01/29 03:19:44;;;;;;;8.48;3.20;;;4.40;99.90;;;;;;4954515;28;20070;-81
2024/01/29 03:22:10;;;;;;;8.70;3.05;;;4.50;99.90;;;;;;4971450;28;20492;-81
2024/01/29 03:24:35;;;;;;;8.75;3.20;;;4.20;99.90;;;;;;4970584;28;20041;-81
2024/01/29 03:27:01;;;;;;;8.95;3.10;;;4.20;99.90;;;;;;4974492;28;20054;-81
2024/01/29 03:29:27;;;;;;;7.97;3.05;;;4.20;99.90;;;;;;5004378;28;20492;-81
2024/01/29 03:31:54;;;;;;;8.63;3.13;;;4.20;99.90;;;;;;5002385;28;20510;-81
2024/01/29 03:34:20;;;;;;;9.63;3.50;;;4.10;99.90;;;;;;4971324;28;20499;-81
2024/01/29 03:36:46;;;;;;;7.63;3.10;;;4.10;99.90;;;;;;4955888;28;20118;-81
2024/01/29 03:39:12;;;;;;;7.45;2.90;;;4.50;99.90;;;;;;4985367;28;20571;-81
2024/01/29 03:41:38;;;;;;;7.53;3.10;;;4.10;99.90;;;;;;4962274;28;20038;-81
2024/01/29 03:44:04;;;;;;;8.38;3.03;;;4.30;99.90;;;;;;4972864;28;20097;-81
2024/01/29 03:46:29;;;;;;;8.68;3.40;;;4.00;99.90;;;;;;4969311;28;20045;-81
2024/01/29 03:48:55;;;;;;;8.05;2.97;;;4.00;99.90;;;;;;4939648;28;20056;-81
2024/01/29 03:51:21;;;;;;;7.35;3.03;;;4.00;99.90;;;;;;4987987;28;20169;-81
2024/01/29 03:53:47;;;;;;;7.90;2.95;;;4.00;99.90;;;;;;5003430;28;20506;-81
2024/01/29 03:56:15;;;;;;;9.02;3.33;;;4.00;99.90;;;;;;4955617;28;20038;-81
2024/01/29 03:58:41;;;;;;;8.57;3.40;;;4.00;99.90;;;;;;4986337;28;20125;-81
2024/01/29 04:01:06;;;;;;;8.70;3.03;;;4.00;99.90;;;;;;4970779;28;20086;-81
2024/01/29 04:03:32;;;;;;;7.75;3.10;;;4.00;99.90;;;;;;4986900;28;20085;-81
2024/01/29 04:05:58;;;;;;;9.40;3.40;;;4.00;99.90;;;;;;4984843;28;20121;-81
2024/01/29 04:08:23;;;;;;;9.77;3.45;;;4.00;99.90;;;;;;4964754;28;20050;-81
2024/01/29 04:10:49;;;;;;;8.93;3.25;;;4.10;99.90;;;;;;4969645;28;20053;-82
2024/01/29 04:13:15;;;;;;;8.40;3.08;;;4.00;99.90;;;;;;4970850;28;20034;-81
2024/01/29 04:15:41;;;;;;;8.18;3.13;;;4.00;99.90;;;;;;4965662;28;20038;-81
2024/01/29 04:18:06;;;;;;;7.47;2.90;;;4.00;99.90;;;;;;4987328;28;20484;-81
2024/01/29 04:20:32;;;;;;;9.63;3.17;;;4.00;99.90;;;;;;4970721;28;20050;-81
2024/01/29 04:22:58;;;;;;;8.50;3.42;;;4.10;99.90;;;;;;4963647;28;20038;-81
2024/01/29 04:25:24;;;;;;;7.72;3.00;;;4.30;99.90;;;;;;4984451;28;20062;-81
2024/01/29 04:27:51;;;;;;;7.68;3.40;;;4.00;99.90;;;;;;5002129;28;20050;-82
2024/01/29 04:30:17;;;;;;;8.15;3.33;;;4.00;99.90;;;;;;4971389;28;20080;-81
2024/01/29 04:32:42;;;;;;;8.95;3.38;;;4.70;99.90;;;;;;4987054;28;20431;-81
2024/01/29 04:35:08;;;;;;;8.68;3.30;;;4.40;99.90;;;;;;4969767;28;20479;-82
2024/01/29 04:37:34;;;;;;;9.32;3.38;;;4.00;99.90;;;;;;4962007;28;20038;-81
2024/01/29 04:40:00;;;;;;;8.52;3.30;;;3.90;99.90;;;;;;4954136;28;20061;-81
2024/01/29 04:42:25;;;;;;;8.45;3.22;;;3.90;99.90;;;;;;4969935;28;21184;-81
2024/01/29 04:44:51;;;;;;;8.68;3.58;;;4.10;99.90;;;;;;4999779;28;20149;-81
2024/01/29 04:47:17;;;;;;;8.55;3.33;;;3.80;99.90;;;;;;4969404;28;20042;-81
2024/01/29 04:49:42;;;;;;;9.10;3.70;;;3.80;99.90;;;;;;4986569;28;20452;-81
2024/01/29 04:52:08;;;;;;;8.50;3.20;;;3.90;99.90;;;;;;4986503;28;20045;-81
2024/01/29 04:54:34;;;;;;;8.10;3.47;;;4.50;99.90;;;;;;4986614;28;20030;-80
2024/01/29 04:56:59;;;;;;;8.68;3.40;;;3.80;99.90;;;;;;4986517;28;20117;-81
2024/01/29 04:59:25;;;;;;;9.63;3.40;;;4.00;99.90;;;;;;4945125;28;20108;-81
2024/01/29 05:01:51;;;;;;;8.50;3.65;;;3.80;99.90;;;;;;4985625;28;20093;-81
2024/01/29 05:04:17;;;;;;;10.27;3.83;;;3.80;99.90;;;;;;4987762;28;20054;-81
2024/01/29 05:06:43;;;;;;;8.73;3.65;;;4.00;99.90;;;;;;5003089;28;20096;-81
2024/01/29 05:09:09;;;;;;;9.25;3.83;;;3.80;99.90;;;;;;4968982;28;20129;-82
2024/01/29 05:11:37;;;;;;;9.27;3.42;;;3.80;99.90;;;;;;4985240;28;20043;-81
2024/01/29 05:14:03;;;;;;;8.70;3.50;;;3.80;99.90;;;;;;4967983;28;20034;-81
2024/01/29 05:16:29;;;;;;;8.80;3.60;;;3.70;99.90;;;;;;5002735;28;20038;-81
2024/01/29 05:18:55;;;;;;;9.73;3.78;;;3.70;99.90;;;;;;4984587;28;20495;-81
2024/01/29 05:21:20;;;;;;;9.55;3.70;;;3.70;99.90;;;;;;4937945;28;20045;-81
2024/01/29 05:23:46;;;;;;;9.13;3.45;;;3.70;99.90;;;;;;4968852;28;20042;-81
2024/01/29 05:26:12;;;;;;;9.45;3.60;;;3.70;99.90;;;;;;4955229;28;20038;-81
2024/01/29 05:28:37;;;;;;;8.40;3.28;;;3.80;99.90;;;;;;4984344;28;20480;-82
2024/01/29 05:31:03;;;;;;;8.93;3.58;;;4.20;99.90;;;;;;4962375;28;20046;-81
2024/01/29 05:33:29;;;;;;;9.60;3.78;;;3.80;99.90;;;;;;4945775;28;20435;-81
2024/01/29 05:35:55;;;;;;;8.43;3.50;;;3.80;99.90;;;;;;5000769;28;20041;-81
2024/01/29 05:38:21;;;;;;;8.48;3.50;;;3.80;99.90;;;;;;5001573;28;20050;-82
2024/01/29 05:40:46;;;;;;;8.45;3.72;;;3.80;99.90;;;;;;4951210;28;20042;-81
2024/01/29 05:43:12;;;;;;;7.93;3.50;;;3.90;99.90;;;;;;4954241;28;20137;-82
2024/01/29 05:45:38;;;;;;;9.00;3.60;;;4.30;99.90;;;;;;4949597;28;20431;-81
2024/01/29 05:48:07;;;;;;;9.93;3.65;;;3.90;99.90;;;;;;4981865;28;20046;-81
2024/01/29 05:50:32;;;;;;;9.85;3.95;;;3.90;99.90;;;;;;4985103;28;20108;-82
2024/01/29 05:52:58;;;;;;;9.05;3.83;;;4.00;99.90;;;;;;4948721;28;21456;-82
2024/01/29 05:55:24;;;;;;;9.68;3.60;;;4.00;99.90;;;;;;4977787;28;20046;-81
2024/01/29 05:57:50;;;;;;;10.27;3.78;;;4.00;99.90;;;;;;4972176;28;20038;-81
2024/01/29 06:00:18;;;;;;;8.70;3.83;;;4.00;99.90;;;;;;4964704;28;20064;-81
2024/01/29 06:02:45;;;;;;;9.70;3.85;;;4.00;99.90;;;;;;4980121;28;20492;-81
2024/01/29 06:05:11;;;;;;;9.63;3.70;;;3.90;99.90;;;;;;5013556;28;20046;-81
2024/01/29 06:07:39;;;;;;;8.20;3.50;;;5.40;99.90;;;;;;4968555;28;20038;-81
2024/01/29 06:10:05;;;;;;;11.75;3.90;;;4.00;99.90;;;;;;4994641;28;20049;-81
2024/01/29 06:12:31;;;;;;;9.93;3.78;;;4.00;99.90;;;;;;4965661;28;20045;-81
2024/01/29 06:14:57;;;;;;;8.40;3.65;;;4.00;99.90;;;;;;4963817;28;20030;-81
2024/01/29 06:17:23;;;;;;;9.52;3.75;;;4.00;99.90;;;;;;5001722;28;20034;-81
2024/01/29 06:19:48;;;;;;;9.43;3.83;;;4.00;99.90;;;;;;4978964;28;20492;-81
2024/01/29 06:22:14;;;;;;;8.68;3.55;;;4.00;99.90;;;;;;4981030;28;20041;-82
2024/01/29 06:24:40;;;;;;;9.32;3.90;;;3.90;99.90;;;;;;4967758;28;20516;-81
2024/01/29 06:27:05;;;;;;;10.57;4.00;;;4.80;99.90;;;;;;4962249;28;20039;-81
2024/01/29 06:29:31;;;;;;;8.88;3.70;;;4.60;99.90;;;;;;4934019;28;20042;-81
2024/01/29 06:31:57;;;;;;;8.45;3.60;;;4.00;99.90;;;;;;4982423;28;20159;-81
2024/01/29 06:34:25;;;;;;;9.80;3.80;;;4.00;99.90;;;;;;4978317;28;20046;-81
2024/01/29 06:36:53;;;;;;;7.85;3.42;;;4.40;99.90;;;;;;4966570;28;20046;-81
2024/01/29 06:39:19;;;;;;;9.07;3.83;;;4.00;99.90;;;;;;4972529;28;20100;-81
2024/01/29 06:41:44;;;;;;;11.98;4.32;;;4.00;99.90;;;;;;4988673;28;20124;-81
2024/01/29 06:44:10;;;;;;;10.13;4.25;;;4.00;99.90;;;;;;4988394;28;20042;-82
2024/01/29 06:46:36;;;;;;;8.98;4.07;;;4.00;99.90;;;;;;4988245;28;20046;-81
2024/01/29 06:49:02;;;;;;;8.77;3.80;;;4.00;99.90;;;;;;4985638;28;20073;-82
2024/01/29 06:51:28;;;;;;;9.30;3.70;;;4.00;99.90;;;;;;4988644;28;20069;-81
2024/01/29 06:53:54;;;;;;;9.48;4.15;;;4.00;99.90;;;;;;4972464;28;20038;-81
2024/01/29 06:56:20;;;;;;;9.55;3.80;;;4.30;99.90;;;;;;4972762;28;20038;-81
2024/01/29 06:58:45;;;;;;;8.73;3.72;;;4.00;99.90;;;;;;4972195;28;20121;-81
2024/01/29 07:01:11;;;;;;;9.55;4.30;;;4.00;99.90;;;;;;4987509;28;20049;-81
2024/01/29 07:03:37;;;;;;;8.55;3.78;;;4.40;99.90;;;;;;4971269;28;20049;-81
2024/01/29 07:06:03;;;;;;;8.82;3.95;;;5.10;99.90;;;;;;4990039;28;20451;-81
2024/01/29 07:08:28;;;;;;;9.02;3.88;;;4.00;99.90;;;;;;4985891;28;20089;-81
2024/01/29 07:10:54;;;;;;;10.68;3.90;;;4.90;99.90;;;;;;4982864;28;20496;-81
2024/01/29 07:13:20;;;;;;;10.25;3.90;;;4.00;99.90;;;;;;5004281;28;20037;-81
2024/01/29 07:15:46;;;;;;;10.23;4.18;;;4.00;99.90;;;;;;4953706;28;20045;-81
2024/01/29 07:18:11;;;;;;;9.43;4.10;;;4.00;99.90;;;;;;4972290;28;20581;-81
2024/01/29 07:20:43;;;;;;;10.15;4.15;;;4.00;99.90;;;;;;4987960;28;20081;-81
2024/01/29 07:23:09;;;;;;;9.95;4.28;;;4.00;99.90;;;;;;4968299;28;20443;-81
2024/01/29 07:25:35;;;;;;;9.30;4.15;;;4.30;99.90;;;;;;4970407;28;20479;-81
2024/01/29 07:28:04;;;;;;;9.30;3.92;;;4.00;99.90;;;;;;4971335;28;20057;-81
2024/01/29 07:30:31;;;;;;;9.00;3.97;;;4.00;99.90;;;;;;4986816;28;20448;-81
2024/01/29 07:33:00;;;;;;;9.93;3.92;;;4.00;99.90;;;;;;5003958;28;20035;-81
2024/01/29 07:35:26;;;;;;;10.02;4.22;;;4.00;99.90;;;;;;4970217;28;20104;-81
2024/01/29 07:37:52;;;;;;;10.50;4.53;;;4.10;99.90;;;;;;4987068;28;20031;-81
2024/01/29 07:40:21;;;;;;;10.07;4.25;;;4.00;99.90;;;;;;4986778;28;20078;-81
2024/01/29 07:42:47;;;;;;;10.02;4.60;;;4.60;99.90;;;;;;4987455;28;20061;-81
2024/01/29 07:45:14;;;;;;;9.15;4.00;;;4.00;99.90;;;;;;4987547;28;20125;-81
2024/01/29 07:47:40;;;;;;;10.60;4.47;;;4.00;99.90;;;;;;4986905;28;20038;-81
2024/01/29 07:50:05;;;;;;;9.82;4.30;;;4.80;99.90;;;;;;4954634;28;20462;-82
2024/01/29 07:52:31;;;;;;;10.30;4.70;;;4.00;99.90;;;;;;4987057;28;20030;-81
2024/01/29 07:54:57;;;;;;;9.95;4.32;;;4.10;99.90;;;;;;4971279;28;20535;-81
2024/01/29 07:57:23;;;;;;;9.75;4.50;;;4.10;99.90;;;;;;4984115;28;20051;-81
2024/01/29 07:59:49;;;;;;;9.15;4.32;;;4.10;99.90;;;;;;5000837;28;20050;-81
2024/01/29 08:02:15;;;;;;;9.10;4.18;;;4.10;99.90;;;;;;5001682;28;20475;-82
2024/01/29 08:04:40;;;;;;;9.48;4.00;;;4.10;99.90;;;;;;5018542;28;20077;-83
2024/01/29 08:07:06;;;;;;;9.68;4.40;;;4.50;99.90;;;;;;4984851;28;20040;-83
2024/01/29 08:09:32;;;;;;;9.95;4.68;;;4.20;99.90;;;;;;5003622;28;20034;-83
2024/01/29 08:11:58;;;;;;;11.25;4.72;;;4.20;99.90;;;;;;4963229;28;20050;-83
2024/01/29 08:14:23;;;;;;;9.38;4.15;;;4.80;99.90;;;;;;4969723;28;20096;-83
2024/01/29 08:16:49;;;;;;;9.18;4.07;;;4.30;99.90;;;;;;4953566;28;20126;-83
2024/01/29 08:19:15;;;;;;;9.07;4.38;;;4.30;99.90;;;;;;4984624;28;20038;-83
2024/01/29 08:21:41;;;;;;;9.25;4.05;;;4.40;99.90;;;;;;4987031;28;20042;-83
2024/01/29 08:24:06;;;;;;;9.73;4.53;;;4.40;99.90;;;;;;4955776;28;20034;-83
2024/01/29 08:26:32;;;;;;;10.02;4.35;;;4.50;99.90;;;;;;4986781;28;20026;-83
2024/01/29 08:28:59;;;;;;;9.50;3.85;;;4.50;99.90;;;;;;5002761;28;20038;-83
2024/01/29 08:31:25;;;;;;;10.05;4.50;;;4.60;99.90;;;;;;4965566;28;20113;-83
2024/01/29 08:33:51;;;;;;;9.85;4.68;;;4.70;99.90;;;;;;4986684;28;20042;-83
2024/01/29 08:36:20;;;;;;;11.43;4.57;;;4.80;99.90;;;;;;4970788;28;20034;-83
2024/01/29 08:38:46;;;;;;;11.00;4.90;;;4.80;99.90;;;;;;4954432;28;20038;-83
2024/01/29 08:41:12;;;;;;;9.48;4.20;;;4.90;99.90;;;;;;5001280;28;20081;-83
2024/01/29 08:43:38;;;;;;;9.05;4.10;;;5.00;99.90;;;;;;4985857;28;20038;-83
2024/01/29 08:46:04;;;;;;;9.13;4.32;;;5.00;99.90;;;;;;4969983;28;20566;-82
2024/01/29 08:48:30;;;;;;;10.07;4.50;;;5.00;99.90;;;;;;4969870;28;20073;-83
2024/01/29 08:50:56;;;;;;;11.52;4.57;;;5.40;99.90;;;;;;4994743;28;20074;-82
2024/01/29 08:53:22;;;;;;;9.68;4.30;;;6.40;99.90;;;;;;4985843;28;20507;-83
2024/01/29 08:55:47;;;;;;;10.25;4.70;;;5.20;99.90;;;;;;4970257;28;20073;-83
2024/01/29 08:58:14;;;;;;;10.82;4.53;;;5.20;99.90;;;;;;4987575;28;20447;-83
2024/01/29 09:00:40;;;;;;;10.05;4.60;;;5.30;99.90;;;;;;4984430;28;20494;-83
2024/01/29 09:03:06;;;;;;;9.32;4.55;;;5.30;99.90;;;;;;5000935;28;20129;-82
2024/01/29 09:05:31;;;;;;;9.98;4.80;;;5.40;99.90;;;;;;4985378;28;20077;-83
2024/01/29 09:07:57;;;;;;;10.70;4.85;;;5.40;99.90;;;;;;5001719;28;20129;-83
2024/01/29 09:10:23;;;;;;;10.50;4.50;;;5.50;99.90;;;;;;4960580;28;20089;-82
2024/01/29 09:12:49;;;;;;;9.27;4.40;;;5.60;99.90;;;;;;4984995;28;20034;-83
2024/01/29 09:15:14;;;;;;;10.18;4.65;;;5.60;99.90;;;;;;4981985;28;20038;-83
2024/01/29 09:17:41;;;;;;;11.70;5.38;;;5.70;99.90;;;;;;4982558;28;20069;-83
2024/01/29 09:20:08;;;;;;;10.35;5.00;;;5.70;99.90;;;;;;4938245;28;20062;-83
2024/01/29 09:22:33;;;;;;;11.23;4.60;;;5.70;99.90;;;;;;4986909;28;20042;-83
2024/01/29 09:24:59;;;;;;;12.32;5.10;;;5.80;99.90;;;;;;4966810;28;20045;-83
2024/01/29 09:27:25;;;;;;;10.07;5.03;;;6.30;99.90;;;;;;4951991;28;20295;-83
2024/01/29 09:29:51;;;;;;;10.05;4.80;;;5.80;99.90;;;;;;4986549;28;20121;-83
2024/01/29 09:32:16;;;;;;;9.60;4.68;;;5.90;99.90;;;;;;4970129;28;20034;-83
2024/01/29 09:34:42;;;;;;;9.60;4.57;;;5.90;99.90;;;;;;4984753;28;20034;-82
2024/01/29 09:37:08;;;;;;;10.75;5.05;;;5.90;99.90;;;;;;4985768;28;20035;-83
2024/01/29 09:39:33;;;;;;;11.10;5.22;;;6.00;99.90;;;;;;4967885;28;20117;-83
2024/01/29 09:42:04;;;;;;;10.25;4.63;;;6.00;99.90;;;;;;4969641;28;20095;-82
2024/01/29 09:44:36;;;;;;;10.57;5.43;;;6.00;99.90;;;;;;5018520;28;20042;-83
2024/01/29 09:47:05;;;;;;;10.20;5.10;;;6.00;99.90;;;;;;4962191;28;20035;-83
2024/01/29 09:49:35;;;;;;;9.90;5.20;;;6.10;99.90;;;;;;4969607;28;20043;-83
2024/01/29 09:52:09;;;;;;;10.00;4.90;;;6.10;99.90;;;;;;4964047;28;20408;-83
2024/01/29 09:54:37;;;;;;;10.35;5.00;;;6.10;99.90;;;;;;4965967;28;20101;-82
2024/01/29 09:57:04;;;;;;;10.50;5.13;;;6.10;99.90;;;;;;4984913;28;20057;-82
2024/01/29 09:59:29;;;;;;;10.65;5.10;;;6.10;99.90;;;;;;4984200;28;20408;-82
2024/01/29 10:01:58;;;;;;;13.07;5.55;;;6.20;99.90;;;;;;4983468;28;20194;-82
2024/01/29 10:04:24;;;;;;;9.82;5.18;;;6.20;99.90;;;;;;4969516;28;20045;-82
2024/01/29 10:06:50;;;;;;;10.68;4.95;;;6.20;99.90;;;;;;4983128;28;20112;-82
2024/01/29 10:09:16;;;;;;;11.50;5.00;;;6.20;99.90;;;;;;4963884;28;20581;-82
2024/01/29 10:11:43;;;;;;;11.55;5.55;;;6.20;99.90;;;;;;5001029;28;20072;-82
2024/01/29 10:14:09;;;;;;;11.82;5.30;;;6.30;99.90;;;;;;4968276;28;20030;-82
2024/01/29 10:16:35;;;;;;;10.68;5.25;;;6.30;99.90;;;;;;4968247;28;20038;-83
2024/01/29 10:19:02;;;;;;;9.75;5.00;;;6.30;99.90;;;;;;5002012;28;20049;-82
2024/01/29 10:21:37;;;;;;;10.93;5.28;;;6.40;99.90;;;;;;4984271;28;21461;-82
2024/01/29 10:24:02;;;;;;;12.52;5.45;;;6.40;99.90;;;;;;4984041;28;20042;-82
2024/01/29 10:26:28;;;;;;;10.15;5.60;;;6.40;99.90;;;;;;4965523;28;20034;-82
2024/01/29 10:29:02;;;;;;;10.50;5.38;;;6.40;99.90;;;;;;4969698;28;20642;-82
2024/01/29 10:31:28;;;;;;;11.10;5.47;;;7.10;99.90;;;;;;4966558;28;20548;-82
2024/01/29 10:33:54;;;;;;;12.48;5.78;;;6.50;99.90;;;;;;4963089;28;20066;-82
2024/01/29 10:36:21;;;;;;;10.18;5.15;;;6.60;99.90;;;;;;4982802;28;20042;-82
2024/01/29 10:38:48;;;;;;;12.07;5.78;;;6.70;99.90;;;;;;5014642;28;20045;-82
2024/01/29 10:41:20;;;;;;;10.90;5.50;;;6.70;99.90;;;;;;4965793;28;20076;-82
2024/01/29 10:43:51;;;;;;;11.65;5.25;;;6.80;99.90;;;;;;4979613;28;20574;-83
2024/01/29 10:46:21;;;;;;;12.63;5.75;;;7.30;99.90;;;;;;4979765;28;20109;-82
2024/01/29 10:48:48;;;;;;;11.00;5.60;;;6.90;99.90;;;;;;5008386;28;20057;-82
2024/01/29 10:51:15;;;;;;;12.85;5.63;;;7.00;99.90;;;;;;4958959;28;20436;-83
2024/01/29 10:53:41;;;;;;;10.45;5.80;;;7.10;99.90;;;;;;4983487;28;20495;-82
2024/01/29 10:56:11;;;;;;;11.07;5.40;;;7.10;99.90;;;;;;4985519;28;20733;-82
2024/01/29 10:58:38;;;;;;;11.63;5.85;;;7.20;99.90;;;;;;4969413;28;20065;-82
2024/01/29 11:01:09;;;;;;;10.38;5.53;;;7.20;99.90;;;;;;4986675;28;20142;-82
2024/01/29 11:03:36;;;;;;;13.20;6.30;;;7.30;99.90;;;;;;4965026;28;20042;-82
2024/01/29 11:06:04;;;;;;;11.40;5.80;;;7.40;99.90;;;;;;4985467;28;20189;-82
2024/01/29 11:08:34;;;;;;;11.98;5.68;;;7.50;99.90;;;;;;4969112;28;20034;-82
2024/01/29 11:11:01;;;;;;;11.23;5.75;;;7.50;99.90;;;;;;4967814;28;20038;-82
2024/01/29 11:13:28;;;;;;;12.52;6.20;;;7.50;99.90;;;;;;4982481;28;20042;-82
2024/01/29 11:15:55;;;;;;;11.80;6.10;;;7.50;99.90;;;;;;4985249;28;20625;-82
2024/01/29 11:18:20;;;;;;;11.70;6.00;;;7.60;99.90;;;;;;4969438;28;20104;-81
2024/01/29 11:20:50;;;;;;;10.32;5.82;;;7.60;99.90;;;;;;4984564;28;20424;-82
2024/01/29 11:23:20;;;;;;;12.80;6.38;;;7.60;99.90;;;;;;4956528;28;20451;-82
2024/01/29 11:25:49;;;;;;;11.43;5.85;;;7.60;99.90;;;;;;5001809;28;20049;-82
2024/01/29 11:28:15;;;;;;;12.43;6.18;;;7.60;99.90;;;;;;4973690;28;20046;-82
2024/01/29 11:30:48;;;;;;;12.98;6.55;;;7.60;99.90;;;;;;4952413;28;20094;-82
2024/01/29 11:33:17;;;;;;;13.95;6.30;;;7.70;99.90;;;;;;4985979;28;20308;-82
2024/01/29 11:35:45;;;;;;;12.48;6.60;;;7.70;99.90;;;;;;4968006;28;20121;-83
2024/01/29 11:38:13;;;;;;;12.45;6.07;;;7.70;99.90;;;;;;4971201;28;20465;-82
2024/01/29 11:40:43;;;;;;;11.88;6.30;;;7.70;99.90;;;;;;4954889;28;20416;-82
2024/01/29 11:43:16;;;;;;;12.32;6.40;;;7.70;99.90;;;;;;5019514;28;20046;-82
2024/01/29 11:45:54;;;;;;;13.43;6.88;;;7.80;99.90;;;;;;4994154;28;20129;-81
2024/01/29 11:48:26;;;;;;;13.10;6.30;;;7.80;99.90;;;;;;4948961;28;20049;-82
2024/01/29 11:50:54;;;;;;;11.07;6.17;;;7.80;99.90;;;;;;4997699;28;20035;-82
2024/01/29 11:53:24;;;;;;;12.68;6.10;;;7.80;99.90;;;;;;4985119;28;20435;-82
2024/01/29 11:55:51;;;;;;;12.65;6.30;;;7.80;99.90;;;;;;4985676;28;20053;-82
2024/01/29 11:58:22;;;;;;;12.07;6.45;;;7.80;99.90;;;;;;4966631;28;20041;-82
2024/01/29 12:00:50;;;;;;;10.75;5.80;;;7.90;99.90;;;;;;4986129;28;20396;-82
2024/01/29 12:03:22;;;;;;;12.13;6.22;;;7.90;99.90;;;;;;4969755;28;20034;-82
2024/01/29 12:05:49;;;;;;;12.55;6.13;;;7.90;99.90;;;;;;4986060;28;20034;-82
2024/01/29 12:08:19;;;;;;;11.52;6.15;;;8.00;99.90;;;;;;4955030;28;20042;-82
2024/01/29 12:10:47;;;;;;;12.45;6.50;;;8.00;99.90;;;;;;4962671;28;20043;-82
2024/01/29 12:13:14;;;;;;;11.40;6.15;;;8.10;99.90;;;;;;4968003;28;20042;-82
2024/01/29 12:15:40;;;;;;;13.75;7.15;;;8.20;99.90;;;;;;4989862;28;20046;-82
2024/01/29 12:18:12;;;;;;;13.50;7.25;;;8.20;99.90;;;;;;4970854;28;20046;-82
2024/01/29 12:20:38;;;;;;;16.55;8.18;;;8.30;99.90;;;;;;4986786;28;20809;-82
2024/01/29 12:23:05;;;;;;;15.93;7.60;;;8.40;99.90;;;;;;4964606;28;20042;-81
2024/01/29 12:25:31;;;;;;;17.92;8.23;;;8.40;99.90;;;;;;4962967;28;20038;-82
2024/01/29 12:28:05;;;;;;;17.27;8.20;;;8.40;99.90;;;;;;4970102;28;20062;-82
2024/01/29 12:30:31;;;;;;;15.20;7.50;;;8.40;99.90;;;;;;4960132;28;20093;-82
2024/01/29 12:32:57;;;;;;;14.40;7.88;;;8.40;99.90;;;;;;4970976;28;20404;-82
2024/01/29 12:35:30;;;;;;;17.33;7.97;;;8.40;99.90;;;;;;4969989;28;20034;-82
2024/01/29 12:38:12;;;;;;;16.17;7.90;;;8.30;99.90;;;;;;4984836;28;20480;-82
2024/01/29 12:40:40;;;;;;;16.67;7.35;;;8.30;99.90;;;;;;4964981;28;20047;-82
2024/01/29 12:43:09;;;;;;;16.35;7.90;;;8.30;99.90;;;;;;4984652;28;20046;-82
2024/01/29 12:45:36;;;;;;;17.92;8.05;;;6.90;99.90;;;;;;4999995;28;20400;-82
2024/01/29 12:48:12;;;;;;;16.92;8.02;;;8.30;99.90;;;;;;4968569;28;20570;-81